createdAt,value
2023-05-19T00:06:43.937Z,81.8056
2023-05-19T00:09:47.280Z,82.6169
2023-05-19T00:10:48.853Z,81.9392
2023-05-19T00:11:50.668Z,81.8400
2023-05-19T00:12:53.857Z,84.0638
2023-05-19T00:13:52.645Z,82.0135
2023-05-19T00:14:53.837Z,84.3934
2023-05-19T00:15:55.048Z,85.9222
2023-05-19T00:16:56.297Z,84.7098
2023-05-19T00:17:58.302Z,85.0495
2023-05-19T00:18:59.609Z,83.3598
2023-05-19T00:20:01.010Z,82.7156
2023-05-19T00:21:02.224Z,84.4040
2023-05-19T00:28:12.801Z,85.6948
2023-05-19T00:29:14.369Z,84.7519
2023-05-19T00:30:16.230Z,84.8180
2023-05-19T00:32:19.615Z,84.0124
2023-05-19T00:33:20.850Z,82.3912
2023-05-19T00:34:22.341Z,82.2757
2023-05-19T00:36:24.844Z,84.0459
2023-05-19T00:37:26.277Z,84.6958
2023-05-19T00:39:29.468Z,84.9294
2023-05-19T00:40:30.908Z,86.7106
2023-05-19T00:42:33.451Z,84.9011
2023-05-19T00:43:34.673Z,85.5326
2023-05-19T00:44:36.443Z,84.6374
2023-05-19T00:45:37.855Z,85.6261
2023-05-19T00:46:40.660Z,86.3733
2023-05-19T00:47:42.737Z,87.5207
2023-05-19T00:48:42.767Z,84.8924
2023-05-19T00:49:44.691Z,85.5483
2023-05-19T00:50:46.232Z,87.7539
2023-05-19T00:51:48.359Z,86.1763
2023-05-19T00:52:49.631Z,86.7945
2023-05-19T00:53:51.524Z,85.7796
2023-05-19T00:54:53.501Z,86.2448
2023-05-19T00:56:55.854Z,83.5648
2023-05-19T00:57:57.130Z,84.4464
2023-05-19T00:58:58.635Z,84.4545
2023-05-19T01:00:00.515Z,83.6924
2023-05-19T01:01:01.760Z,82.8105
2023-05-19T01:02:03.010Z,83.8634
2023-05-19T01:03:04.306Z,82.8948
2023-05-19T01:04:06.321Z,84.9478
2023-05-19T01:05:08.575Z,87.6984
2023-05-19T01:07:11.899Z,87.9845
2023-05-19T01:08:14.257Z,89.0491
2023-05-19T01:09:15.611Z,88.2194
2023-05-19T01:10:17.054Z,87.5169
2023-05-19T01:11:18.993Z,86.7278
2023-05-19T01:12:21.127Z,89.1872
2023-05-19T01:13:22.527Z,90.2085
2023-05-19T01:14:24.766Z,90.5371
2023-05-19T01:15:26.662Z,90.2244
2023-05-19T01:16:28.841Z,90.1531
2023-05-19T01:17:30.440Z,88.9534
2023-05-19T01:19:33.657Z,89.4367
2023-05-19T01:20:37.287Z,89.3249
2023-05-19T01:26:44.877Z,89.9554
2023-05-19T01:27:47.389Z,90.1226
2023-05-19T01:28:48.798Z,90.9898
2023-05-19T01:30:52.439Z,92.7268
2023-05-19T01:31:54.579Z,91.9095
2023-05-19T01:32:57.112Z,90.6018
2023-05-19T01:33:58.345Z,88.9254
2023-05-19T01:35:00.281Z,87.3114
2023-05-19T01:36:02.204Z,88.6097
2023-05-19T01:37:03.474Z,90.3835
2023-05-19T01:38:05.619Z,90.7325
2023-05-19T01:39:06.855Z,90.7355
2023-05-19T01:40:08.075Z,89.6278
2023-05-19T01:41:09.302Z,90.2614
2023-05-19T01:42:10.612Z,89.1636
2023-05-19T01:43:11.953Z,89.3083
2023-05-19T01:46:15.559Z,88.8702
2023-05-19T01:47:16.812Z,88.7139
2023-05-19T01:48:18.064Z,88.5550
2023-05-19T01:49:19.478Z,90.4271
2023-05-19T01:51:22.362Z,92.9395
2023-05-19T01:52:24.730Z,89.1587
2023-05-19T01:54:27.189Z,86.6273
2023-05-19T01:55:28.598Z,87.5411
2023-05-19T01:56:30.004Z,88.6852
2023-05-19T01:57:31.254Z,88.9295
2023-05-19T01:58:32.671Z,90.2627
2023-05-19T01:59:34.103Z,89.5075
2023-05-19T02:00:36.562Z,90.0442
2023-05-19T02:01:38.508Z,89.7295
2023-05-19T02:02:39.964Z,87.3563
2023-05-19T02:04:43.168Z,85.9603
2023-05-19T02:05:45.904Z,86.2549
2023-05-19T02:06:47.347Z,87.1512
2023-05-19T02:07:49.534Z,87.6727
2023-05-19T02:08:51.866Z,88.8645
2023-05-19T02:09:53.134Z,88.4215
2023-05-19T02:11:56.866Z,89.2854
2023-05-19T02:12:58.841Z,89.9305
2023-05-19T02:14:00.334Z,90.4269
2023-05-19T02:15:02.313Z,91.3171
2023-05-19T02:16:03.577Z,91.5163
2023-05-19T02:17:05.250Z,91.3148
2023-05-19T02:18:06.704Z,90.8217
2023-05-19T02:19:08.584Z,90.2208
2023-05-19T02:20:10.005Z,90.3075
2023-05-19T02:21:13.203Z,87.3278
2023-05-19T02:22:12.382Z,86.4470
2023-05-19T02:23:14.054Z,87.6093
2023-05-19T02:24:15.456Z,88.8931
2023-05-19T02:25:16.900Z,89.4544
2023-05-19T02:26:18.128Z,90.6938
2023-05-19T02:27:19.564Z,89.0638
2023-05-19T02:28:21.589Z,88.8984
2023-05-19T02:30:24.739Z,91.8549
2023-05-19T02:31:27.605Z,89.6801
2023-05-19T02:32:29.865Z,88.4307
2023-05-19T02:33:31.076Z,87.6570
2023-05-19T02:34:33.121Z,87.8533
2023-05-19T02:35:35.073Z,88.1946
2023-05-19T02:36:36.849Z,87.1640
2023-05-19T02:37:38.163Z,87.9279
2023-05-19T02:38:40.887Z,87.6779
2023-05-19T02:39:42.879Z,86.6124
2023-05-19T02:40:44.189Z,88.1160
2023-05-19T02:41:45.920Z,86.8436
2023-05-19T02:42:47.312Z,87.7379
2023-05-19T02:43:48.554Z,87.6573
2023-05-19T02:44:49.826Z,86.7631
2023-05-19T02:45:51.072Z,87.1204
2023-05-19T02:46:52.378Z,87.9583
2023-05-19T02:47:53.617Z,87.3356
2023-05-19T02:48:55.507Z,88.0819
2023-05-19T02:50:10.007Z,87.3838
2023-05-19T02:50:58.013Z,88.2054
2023-05-19T02:52:00.002Z,89.0972
2023-05-19T02:53:01.324Z,88.3477
2023-05-19T02:54:03.213Z,89.1649
2023-05-19T02:55:05.098Z,88.5403
2023-05-19T02:56:07.194Z,87.7969
2023-05-19T02:57:09.023Z,87.5718
2023-05-19T02:58:10.271Z,87.2385
2023-05-19T02:59:12.246Z,87.2301
2023-05-19T03:00:14.122Z,87.6837
2023-05-19T03:01:16.092Z,88.5988
2023-05-19T03:02:17.311Z,88.7590
2023-05-19T03:03:19.276Z,88.6612
2023-05-19T03:04:21.262Z,87.2849
2023-05-19T03:05:23.407Z,87.0871
2023-05-19T03:07:26.700Z,88.5995
2023-05-19T03:08:28.758Z,89.8892
2023-05-19T03:09:30.031Z,90.5252
2023-05-19T03:10:31.696Z,91.3473
2023-05-19T03:12:34.427Z,88.8246
2023-05-19T03:14:36.981Z,88.2725
2023-05-19T03:15:39.242Z,88.3703
2023-05-19T03:16:40.591Z,86.8584
2023-05-19T03:17:42.037Z,88.9194
2023-05-19T03:18:43.418Z,89.6378
2023-05-19T03:19:44.586Z,88.4299
2023-05-19T03:20:46.333Z,89.3001
2023-05-19T03:21:48.466Z,89.5984
2023-05-19T03:22:49.868Z,89.3443
2023-05-19T03:23:51.091Z,88.7992
2023-05-19T03:24:52.293Z,88.6354
2023-05-19T03:26:55.268Z,88.6563
2023-05-19T03:27:57.682Z,88.2143
2023-05-19T03:28:58.871Z,89.0068
2023-05-19T03:30:00.794Z,89.4224
2023-05-19T03:31:02.901Z,88.8426
2023-05-19T03:32:04.676Z,89.6235
2023-05-19T03:33:06.088Z,89.4729
2023-05-19T03:34:08.086Z,89.4711
2023-05-19T03:35:09.279Z,89.4922
2023-05-19T03:36:10.506Z,89.6644
2023-05-19T03:37:12.297Z,88.3119
2023-05-19T03:38:14.198Z,89.1997
2023-05-19T03:39:15.434Z,90.0380
2023-05-19T03:40:16.633Z,89.6476
2023-05-19T03:41:18.558Z,89.7493
2023-05-19T03:42:20.440Z,87.7630
2023-05-19T03:44:23.354Z,88.1692
2023-05-19T03:45:25.151Z,87.8024
2023-05-19T03:46:27.016Z,88.4861
2023-05-19T03:47:28.495Z,87.5866
2023-05-19T03:48:30.626Z,87.7913
2023-05-19T03:49:32.645Z,89.2345
2023-05-19T03:50:34.125Z,89.5098
2023-05-19T03:51:36.037Z,90.6321
2023-05-19T03:52:37.889Z,91.0974
2023-05-19T03:53:39.124Z,91.4604
2023-05-19T03:55:42.036Z,92.3072
2023-05-19T03:56:43.927Z,92.5272
2023-05-19T03:58:46.799Z,92.4359
2023-05-19T03:59:48.643Z,91.4785
2023-05-19T04:00:49.855Z,90.5128
2023-05-19T04:01:51.776Z,90.9822
2023-05-19T04:02:53.689Z,90.7702
2023-05-19T04:03:55.014Z,90.6203
2023-05-19T04:04:57.004Z,90.5518
2023-05-19T04:05:58.213Z,91.0741
2023-05-19T04:06:59.475Z,90.9208
2023-05-19T04:08:01.409Z,90.7915
2023-05-19T04:09:03.262Z,90.6424
2023-05-19T04:10:04.496Z,90.4299
2023-05-19T04:11:05.846Z,91.8020
2023-05-19T04:12:07.661Z,91.7977
2023-05-19T04:13:08.924Z,92.0898
2023-05-19T04:15:11.212Z,92.9847
2023-05-19T04:16:12.428Z,93.8988
2023-05-19T04:17:13.633Z,94.0803
2023-05-19T04:19:16.329Z,94.2722
2023-05-19T04:20:17.607Z,93.2542
2023-05-19T04:21:19.732Z,91.6112
2023-05-19T04:23:22.727Z,92.5569
2023-05-19T04:24:24.922Z,93.0168
2023-05-19T04:25:26.105Z,93.1160
2023-05-19T04:27:29.065Z,92.0197
2023-05-19T04:28:30.265Z,92.5359
2023-05-19T04:29:31.451Z,93.5599
2023-05-19T04:30:33.432Z,94.2654
2023-05-19T04:31:35.507Z,93.2907
2023-05-19T04:32:37.473Z,93.6124
2023-05-19T04:33:38.869Z,93.3790
2023-05-19T04:34:40.935Z,93.4684
2023-05-19T04:35:42.769Z,92.2956
2023-05-19T04:36:43.980Z,92.5175
2023-05-19T04:37:45.358Z,92.7677
2023-05-19T04:38:47.153Z,93.1234
2023-05-19T04:39:48.411Z,92.7316
2023-05-19T04:40:49.577Z,90.9002
2023-05-19T04:41:50.793Z,90.4369
2023-05-19T04:42:52.042Z,89.8104
2023-05-19T04:43:53.231Z,89.1273
2023-05-19T04:44:55.092Z,89.1212
2023-05-19T04:45:56.912Z,89.3436
2023-05-19T04:46:58.767Z,90.9793
2023-05-19T04:48:00.238Z,89.0103
2023-05-19T04:49:02.403Z,89.5818
2023-05-19T04:50:04.325Z,89.7477
2023-05-19T04:51:06.278Z,89.7346
2023-05-19T04:52:07.500Z,88.0884
2023-05-19T04:53:08.783Z,87.6632
2023-05-19T04:54:10.737Z,88.9794
2023-05-19T04:55:11.926Z,88.6463
2023-05-19T04:56:13.166Z,88.4271
2023-05-19T04:57:15.066Z,87.1945
2023-05-19T04:58:16.262Z,87.5927
2023-05-19T04:59:17.451Z,86.4855
2023-05-19T05:00:18.708Z,85.7760
2023-05-19T05:01:20.576Z,85.2135
2023-05-19T05:02:22.617Z,85.6432
2023-05-19T05:03:24.665Z,86.1248
2023-05-19T05:04:25.917Z,86.5560
2023-05-19T05:05:27.818Z,86.0997
2023-05-19T05:06:29.788Z,85.6128
2023-05-19T05:07:32.232Z,85.1978
2023-05-19T05:13:39.303Z,84.9776
2023-05-19T05:14:40.541Z,84.8151
2023-05-19T05:15:41.778Z,83.4811
2023-05-19T05:16:43.064Z,84.1547
2023-05-19T05:17:44.671Z,84.5698
2023-05-19T05:18:46.489Z,82.9093
2023-05-19T05:19:48.381Z,86.0372
2023-05-19T05:20:49.597Z,84.4991
2023-05-19T05:21:52.336Z,83.3914
2023-05-19T05:24:53.971Z,84.4049
2023-05-19T05:25:55.863Z,84.8413
2023-05-19T05:26:57.133Z,83.8657
2023-05-19T05:27:59.053Z,84.4229
2023-05-19T05:31:02.377Z,83.8974
2023-05-19T05:35:06.844Z,85.3857
2023-05-19T05:36:08.033Z,84.7029
2023-05-19T05:37:09.265Z,85.6724
2023-05-19T05:38:11.416Z,85.0755
2023-05-19T05:39:12.790Z,86.0787
2023-05-19T05:40:14.776Z,84.7320
2023-05-19T05:41:16.055Z,85.4229
2023-05-19T05:42:17.383Z,85.7528
2023-05-19T05:43:18.623Z,85.0178
2023-05-19T05:44:19.866Z,85.7076
2023-05-19T05:45:21.145Z,86.1319
2023-05-19T05:46:22.503Z,85.2893
2023-05-19T05:47:23.745Z,87.1568
2023-05-19T05:48:25.007Z,86.7972
2023-05-19T05:49:26.251Z,85.4883
2023-05-19T05:50:29.086Z,85.7104
2023-05-19T05:51:30.343Z,85.3321
2023-05-19T05:52:32.167Z,85.4806
2023-05-19T05:53:33.437Z,86.3989
2023-05-19T05:54:34.695Z,87.3710
2023-05-19T05:55:36.531Z,85.9660
2023-05-19T05:56:37.808Z,85.8418
2023-05-19T05:57:39.080Z,85.2021
2023-05-19T05:58:40.967Z,85.9319
2023-05-19T05:59:42.833Z,85.7488
2023-05-19T06:00:44.735Z,85.9539
2023-05-19T06:01:46.848Z,85.0379
2023-05-19T06:02:48.904Z,85.7949
2023-05-19T06:03:50.238Z,85.5448
2023-05-19T06:05:53.621Z,86.4273
2023-05-19T06:06:54.919Z,85.3694
2023-05-19T06:07:56.198Z,85.3577
2023-05-19T06:08:57.506Z,84.2279
2023-05-19T06:10:00.012Z,85.3143
2023-05-19T06:11:01.271Z,85.4822
2023-05-19T06:13:04.755Z,85.2792
2023-05-19T06:14:06.668Z,85.3822
2023-05-19T06:15:07.933Z,85.8637
2023-05-19T06:16:10.396Z,85.0176
2023-05-19T06:17:12.754Z,85.8083
2023-05-19T06:18:14.087Z,85.3676
2023-05-19T06:19:15.401Z,85.6322
2023-05-19T06:21:18.295Z,85.1231
2023-05-19T06:22:19.535Z,85.4038
2023-05-19T06:24:21.861Z,85.2476
2023-05-19T06:25:23.148Z,85.1926
2023-05-19T06:26:24.454Z,85.0505
2023-05-19T06:27:25.691Z,87.2806
2023-05-19T06:28:28.125Z,86.4379
2023-05-19T06:29:29.399Z,86.6031
2023-05-19T06:30:31.586Z,85.7654
2023-05-19T06:31:34.022Z,87.8302
2023-05-19T06:32:35.880Z,86.4490
2023-05-19T06:33:37.162Z,85.5777
2023-05-19T06:34:39.091Z,86.1847
2023-05-19T06:35:41.038Z,86.2923
2023-05-19T06:36:42.420Z,86.2137
2023-05-19T06:37:45.331Z,85.6448
2023-05-19T06:45:52.851Z,88.2494
2023-05-19T06:46:54.146Z,86.0708
2023-05-19T06:47:55.539Z,85.8683
2023-05-19T06:50:59.768Z,85.5333
2023-05-19T06:53:03.579Z,85.5548
2023-05-19T06:54:04.950Z,85.0108
2023-05-19T06:55:06.519Z,86.3733
2023-05-19T06:56:07.869Z,87.2271
2023-05-19T06:57:33.224Z,86.9682
2023-05-19T07:01:14.600Z,86.2763
2023-05-19T07:02:16.648Z,85.2808
2023-05-19T07:03:19.126Z,85.1474
2023-05-19T07:04:20.448Z,84.0930
2023-05-19T07:05:21.682Z,85.2085
2023-05-19T07:06:23.698Z,84.2838
2023-05-19T07:07:25.513Z,84.3875
2023-05-19T07:08:26.821Z,84.3019
2023-05-19T07:09:28.100Z,84.3592
2023-05-19T07:10:30.075Z,84.8178
2023-05-19T07:11:31.373Z,84.3811
2023-05-19T07:12:33.679Z,82.9648
2023-05-19T07:13:34.945Z,83.2910
2023-05-19T07:14:36.957Z,84.2953
2023-05-19T07:15:38.191Z,86.1270
2023-05-19T07:16:39.429Z,84.3095
2023-05-19T07:18:42.648Z,83.4475
2023-05-19T07:19:44.709Z,82.8985
2023-05-19T07:20:46.015Z,82.4955
2023-05-19T07:22:49.026Z,83.8200
2023-05-19T07:23:51.001Z,83.2380
2023-05-19T07:24:52.280Z,82.6363
2023-05-19T07:25:54.269Z,83.0561
2023-05-19T07:26:56.906Z,82.7298
2023-05-19T07:27:59.243Z,82.3916
2023-05-19T07:29:12.214Z,82.3292
2023-05-19T07:30:02.199Z,80.9569
2023-05-19T07:31:03.440Z,81.5752
2023-05-19T07:32:04.737Z,82.0512
2023-05-19T07:33:06.089Z,81.2003
2023-05-19T07:34:07.353Z,83.5400
2023-05-19T07:35:08.622Z,82.1182
2023-05-19T07:36:09.876Z,82.2943
2023-05-19T07:37:11.150Z,81.5922
2023-05-19T07:38:12.472Z,82.2040
2023-05-19T07:43:18.227Z,81.4046
2023-05-19T07:44:19.525Z,81.1335
2023-05-19T07:46:21.943Z,80.6006
2023-05-19T07:47:23.768Z,81.1350
2023-05-19T07:49:26.741Z,78.4031
2023-05-19T07:50:28.808Z,78.3377
2023-05-19T07:51:30.725Z,78.2053
2023-05-19T07:52:31.986Z,79.5861
2023-05-19T07:53:34.001Z,78.8454
2023-05-19T07:54:35.353Z,79.8889
2023-05-19T07:55:36.605Z,79.1111
2023-05-19T07:56:37.872Z,78.7332
2023-05-19T07:57:39.822Z,78.1611
2023-05-19T07:58:41.761Z,79.5861
2023-05-19T07:59:42.993Z,78.3432
2023-05-19T08:00:45.208Z,78.3252
2023-05-19T08:01:47.047Z,78.9432
2023-05-19T08:02:49.451Z,79.2719
2023-05-19T08:04:52.951Z,78.2809
2023-05-19T08:05:54.936Z,79.3737
2023-05-19T08:06:56.220Z,80.6491
2023-05-19T08:07:57.504Z,80.1983
2023-05-19T08:08:59.334Z,80.3021
2023-05-19T08:10:00.605Z,81.9620
2023-05-19T08:11:01.943Z,80.3542
2023-05-19T08:12:03.230Z,80.5559
2023-05-19T08:13:07.040Z,81.4363
2023-05-19T08:16:09.281Z,82.0018
2023-05-19T08:17:11.121Z,80.2724
2023-05-19T08:18:13.021Z,80.8750
2023-05-19T08:19:14.367Z,80.7165
2023-05-19T08:20:16.285Z,81.9957
2023-05-19T08:21:18.400Z,80.6929
2023-05-19T08:22:20.325Z,79.4016
2023-05-19T08:23:22.250Z,78.8951
2023-05-19T08:24:25.313Z,79.3932
2023-05-19T08:25:24.462Z,80.1758
2023-05-19T08:26:26.324Z,81.5652
2023-05-19T08:27:31.079Z,79.7127
2023-05-19T08:40:43.462Z,81.5326
2023-05-19T08:41:44.805Z,81.3447
2023-05-19T08:45:01.321Z,79.0425
2023-05-19T08:45:48.796Z,80.2566
2023-05-19T08:46:50.129Z,79.7170
2023-05-19T08:47:51.505Z,79.0587
2023-05-19T08:48:52.830Z,79.8983
2023-05-19T08:49:54.132Z,81.0220
2023-05-19T08:50:55.413Z,77.6017
2023-05-19T08:51:56.695Z,76.5218
2023-05-19T08:52:57.995Z,77.0728
2023-05-19T08:53:59.207Z,77.6146
2023-05-19T08:55:00.490Z,77.9372
2023-05-19T08:56:01.770Z,78.3967
2023-05-19T08:57:03.152Z,76.8759
2023-05-19T08:58:04.454Z,75.0607
2023-05-19T08:59:05.735Z,75.4233
2023-05-19T09:00:07.044Z,75.4487
2023-05-19T09:01:08.390Z,74.9998
2023-05-19T09:02:09.629Z,76.2827
2023-05-19T09:03:18.105Z,75.1293
2023-05-19T09:04:12.921Z,74.4656
2023-05-19T09:05:14.284Z,76.7348
2023-05-19T09:06:15.582Z,78.4606
2023-05-19T09:07:16.911Z,76.7992
2023-05-19T09:08:18.253Z,76.0196
2023-05-19T09:09:19.796Z,79.0055
2023-05-19T09:10:21.134Z,78.9430
2023-05-19T09:11:22.584Z,76.0725
2023-05-19T09:12:23.962Z,78.0834
2023-05-19T09:14:26.494Z,77.4832
2023-05-19T09:15:27.778Z,76.2552
2023-05-19T09:16:30.184Z,78.6172
2023-05-19T09:17:31.759Z,78.6588
2023-05-19T09:18:33.106Z,76.6674
2023-05-19T09:19:34.493Z,78.4117
2023-05-19T09:20:35.835Z,77.9493
2023-05-19T09:21:37.140Z,77.9800
2023-05-19T09:22:38.454Z,78.7081
2023-05-19T09:23:39.779Z,78.8307
2023-05-19T09:25:42.211Z,79.1238
2023-05-19T09:26:43.513Z,79.4875
2023-05-19T09:27:44.805Z,79.5051
2023-05-19T09:28:46.132Z,80.1594
2023-05-19T09:29:47.423Z,81.5378
2023-05-19T09:30:48.697Z,80.7468
2023-05-19T09:31:50.033Z,80.1384
2023-05-19T09:43:02.731Z,78.7148
2023-05-19T09:44:03.973Z,76.0918
2023-05-19T09:45:05.254Z,75.9885
2023-05-19T09:46:06.782Z,76.6546
2023-05-19T09:47:08.478Z,76.3275
2023-05-19T09:48:09.712Z,77.0027
2023-05-19T09:49:11.030Z,75.6908
2023-05-19T09:50:12.272Z,75.8299
2023-05-19T09:51:13.510Z,75.0591
2023-05-19T09:52:14.777Z,77.2514
2023-05-19T09:53:16.525Z,76.0779
2023-05-19T09:54:17.809Z,75.3278
2023-05-19T09:55:19.091Z,75.6784
2023-05-19T09:56:20.377Z,76.1113
2023-05-19T09:57:21.751Z,77.7625
2023-05-19T09:58:23.037Z,77.7867
2023-05-19T09:59:24.366Z,75.4326
2023-05-19T10:00:25.657Z,77.5424
2023-05-19T10:01:26.990Z,74.9587
2023-05-19T10:02:28.512Z,74.7722
2023-05-19T10:03:29.878Z,74.7593
2023-05-19T10:04:31.465Z,75.3160
2023-05-19T10:05:32.957Z,77.8723
2023-05-19T10:06:34.511Z,74.9328
2023-05-19T10:07:35.753Z,76.8924
2023-05-19T10:08:37.047Z,71.9914
2023-05-19T10:09:38.298Z,74.6885
2023-05-19T10:10:39.657Z,72.2026
2023-05-19T10:11:40.909Z,71.5602
2023-05-19T10:12:42.230Z,72.4422
2023-05-19T10:14:45.045Z,71.9509
2023-05-19T10:15:57.067Z,72.0793
2023-05-19T10:16:48.029Z,72.1814
2023-05-19T10:17:49.475Z,77.1330
2023-05-19T10:18:50.840Z,72.5342
2023-05-19T10:19:52.128Z,74.4466
2023-05-19T10:20:53.537Z,75.3246
2023-05-19T10:21:54.870Z,75.2040
2023-05-19T10:22:56.225Z,75.2089
2023-05-19T10:23:57.519Z,75.7431
2023-05-19T10:28:02.261Z,74.5357
2023-05-19T10:48:25.660Z,70.9800
2023-05-19T10:49:26.965Z,70.7123
2023-05-19T10:50:28.372Z,71.3715
2023-05-19T10:51:29.690Z,75.9289
2023-05-19T10:52:31.014Z,74.8791
2023-05-19T10:54:33.604Z,72.9548
2023-05-19T10:55:35.083Z,73.4074
2023-05-19T10:56:36.781Z,75.2386
2023-05-19T10:57:38.182Z,72.1868
2023-05-19T10:58:39.504Z,70.7911
2023-05-19T10:59:40.889Z,71.4399
2023-05-19T11:00:42.223Z,72.6662
2023-05-19T11:01:43.762Z,73.0875
2023-05-19T11:02:45.091Z,73.0069
2023-05-19T11:03:46.455Z,72.8632
2023-05-19T11:04:50.239Z,74.2519
2023-05-19T11:05:50.336Z,74.0364
2023-05-19T11:06:51.801Z,74.0108
2023-05-19T11:07:53.198Z,73.8736
2023-05-19T11:08:54.535Z,72.0575
2023-05-19T11:09:55.836Z,74.8198
2023-05-19T11:10:57.224Z,73.0423
2023-05-19T11:11:58.528Z,73.8333
2023-05-19T11:12:59.933Z,71.6797
2023-05-19T11:15:02.367Z,74.2918
2023-05-19T11:16:03.753Z,75.0167
2023-05-19T11:17:05.155Z,72.9680
2023-05-19T11:18:06.550Z,73.5990
2023-05-19T11:19:08.017Z,73.0275
2023-05-19T11:20:09.373Z,73.6899
2023-05-19T11:21:10.702Z,75.1264
2023-05-19T11:22:12.027Z,68.4907
2023-05-19T11:23:13.383Z,73.3392
2023-05-19T11:24:14.635Z,71.1646
2023-05-19T11:25:15.957Z,73.4712
2023-05-19T11:26:17.256Z,72.0635
2023-05-19T11:27:18.573Z,73.4543
2023-05-19T11:28:20.139Z,72.4381
2023-05-19T11:29:21.532Z,74.5844
2023-05-19T11:30:22.831Z,72.9725
2023-05-19T11:31:24.147Z,73.2813
2023-05-19T11:32:25.522Z,73.3646
2023-05-19T11:33:26.835Z,74.0891
2023-05-19T11:34:28.155Z,72.2660
2023-05-19T11:36:30.667Z,71.0402
2023-05-19T11:37:31.956Z,71.9304
2023-05-19T11:38:33.263Z,73.1513
2023-05-19T11:39:34.596Z,69.8056
2023-05-19T11:40:35.898Z,71.4396
2023-05-19T11:41:37.277Z,70.8634
2023-05-19T11:42:38.580Z,67.1405
2023-05-19T11:43:39.912Z,66.8746
2023-05-19T11:44:41.300Z,69.8823
2023-05-19T11:46:43.877Z,66.3794
2023-05-19T11:48:00.284Z,66.9340
2023-05-19T11:48:46.966Z,66.0572
2023-05-19T11:50:14.740Z,67.8330
2023-05-19T11:51:16.125Z,69.5643
2023-05-19T11:52:17.519Z,68.3944
2023-05-19T11:53:18.995Z,66.8854
2023-05-19T11:54:20.557Z,67.8413
2023-05-19T11:55:21.956Z,65.8801
2023-05-19T11:56:23.355Z,66.7436
2023-05-19T11:57:24.726Z,64.3803
2023-05-19T11:58:26.072Z,67.8966
2023-05-19T11:59:27.480Z,65.0985
2023-05-19T12:00:28.916Z,66.4587
2023-05-19T12:01:30.285Z,64.4485
2023-05-19T12:02:31.874Z,65.6852
2023-05-19T12:03:33.407Z,66.8336
2023-05-19T12:04:34.864Z,64.0957
2023-05-19T12:05:39.915Z,61.2003
2023-05-19T12:06:38.125Z,67.5311
2023-05-19T12:07:39.636Z,65.7246
2023-05-19T12:08:40.983Z,67.6713
2023-05-19T12:09:42.387Z,67.8179
2023-05-19T12:10:43.802Z,66.1679
2023-05-19T12:11:45.150Z,68.4682
2023-05-19T12:12:46.557Z,67.2196
2023-05-19T12:15:50.453Z,68.2272
2023-05-19T12:16:52.042Z,68.8922
2023-05-19T12:17:53.551Z,68.9580
2023-05-19T12:18:54.951Z,68.3746
2023-05-19T12:19:56.376Z,68.6053
2023-05-19T12:20:58.032Z,68.2218
2023-05-19T12:21:59.444Z,69.6186
2023-05-19T12:23:01.036Z,65.9837
2023-05-19T12:24:02.678Z,64.7114
2023-05-19T12:26:05.281Z,66.5089
2023-05-19T12:27:06.720Z,66.8360
2023-05-19T12:28:08.190Z,66.5032
2023-05-19T12:29:09.704Z,68.4837
2023-05-19T12:30:11.284Z,70.2767
2023-05-19T12:31:12.750Z,65.6175
2023-05-19T12:32:14.146Z,65.9512
2023-05-19T12:33:15.637Z,64.6161
2023-05-19T12:34:17.035Z,63.7484
2023-05-19T12:35:18.553Z,65.4301
2023-05-19T12:37:21.221Z,67.1720
2023-05-19T12:55:43.824Z,69.9507
2023-05-19T12:56:45.186Z,68.4249
2023-05-19T12:57:47.982Z,68.8848
2023-05-19T12:58:47.276Z,70.7266
2023-05-19T12:59:48.601Z,70.5907
2023-05-19T13:00:50.180Z,69.9333
2023-05-19T13:01:51.765Z,68.1673
2023-05-19T13:03:54.478Z,68.6012
2023-05-19T13:04:56.115Z,69.3126
2023-05-19T13:05:57.485Z,70.9078
2023-05-19T13:06:58.958Z,67.4062
2023-05-19T13:08:00.362Z,66.8548
2023-05-19T13:09:01.695Z,67.4969
2023-05-19T13:10:03.081Z,66.5612
2023-05-19T13:11:04.440Z,67.1996
2023-05-19T13:12:05.847Z,67.7528
2023-05-19T13:14:08.374Z,71.3828
2023-05-19T13:15:09.833Z,70.7525
2023-05-19T13:16:11.273Z,71.2388
2023-05-19T13:19:24.986Z,73.0660
2023-05-19T13:20:17.170Z,73.3760
2023-05-19T13:21:18.521Z,72.5977
2023-05-19T13:22:19.853Z,74.6156
2023-05-19T13:23:21.258Z,74.5083
2023-05-19T13:24:22.642Z,73.3725
2023-05-19T13:25:24.026Z,74.5089
2023-05-19T13:26:25.425Z,74.0194
2023-05-19T13:27:26.806Z,73.5606
2023-05-19T13:28:28.221Z,71.4982
2023-05-19T13:29:29.604Z,73.2255
2023-05-19T13:30:31.050Z,73.4806
2023-05-19T13:31:32.635Z,70.9069
2023-05-19T13:32:34.070Z,69.4806
2023-05-19T13:33:35.573Z,69.6973
2023-05-19T13:35:38.432Z,73.0662
2023-05-19T13:36:40.045Z,71.9407
2023-05-19T13:37:41.455Z,73.6764
2023-05-19T13:38:43.006Z,74.7220
2023-05-19T13:39:44.314Z,74.2290
2023-05-19T13:40:45.724Z,72.5070
2023-05-19T13:41:47.189Z,74.4286
2023-05-19T13:42:48.617Z,73.0897
2023-05-19T13:43:49.972Z,76.1151
2023-05-19T13:44:51.529Z,73.3369
2023-05-19T13:45:52.936Z,72.4287
2023-05-19T13:47:55.685Z,73.0331
2023-05-19T13:48:57.046Z,71.5763
2023-05-19T13:49:58.478Z,73.4337
2023-05-19T13:50:59.891Z,71.2093
2023-05-19T13:52:02.167Z,71.7198
2023-05-19T13:53:03.542Z,70.9567
2023-05-19T13:54:05.301Z,74.6982
2023-05-19T13:55:06.695Z,71.2261
2023-05-19T13:56:08.255Z,71.3309
2023-05-19T13:57:09.606Z,71.7338
2023-05-19T13:58:11.048Z,74.6007
2023-05-19T13:59:12.581Z,72.7703
2023-05-19T14:01:15.245Z,74.7486
2023-05-19T14:02:16.676Z,72.5743
2023-05-19T14:03:18.126Z,71.4151
2023-05-19T14:04:19.697Z,73.9418
2023-05-19T14:05:21.522Z,75.1382
2023-05-19T14:06:22.894Z,74.7760
2023-05-19T14:07:24.217Z,74.4199
2023-05-19T14:08:25.650Z,75.1254
2023-05-19T14:09:28.080Z,75.9162
2023-05-19T14:10:27.875Z,75.1306
2023-05-19T14:11:29.219Z,76.2882
2023-05-19T14:12:38.159Z,75.5720
2023-05-19T14:13:36.123Z,78.1048
2023-05-19T14:14:34.543Z,74.9079
2023-05-19T14:15:35.978Z,77.5620
2023-05-19T14:16:38.286Z,75.0374
2023-05-19T14:17:39.889Z,77.0089
2023-05-19T14:18:41.344Z,78.4237
2023-05-19T14:19:42.783Z,77.4321
2023-05-19T14:21:45.381Z,75.6418
2023-05-19T14:22:46.793Z,74.2572
2023-05-19T14:23:48.166Z,74.4383
2023-05-19T14:24:49.491Z,73.7725
2023-05-19T14:25:50.868Z,74.8690
2023-05-19T14:26:52.227Z,72.6868
2023-05-19T14:27:53.655Z,72.8008
2023-05-19T14:28:55.003Z,74.0562
2023-05-19T14:29:56.703Z,79.0048
2023-05-19T14:31:59.865Z,75.9657
2023-05-19T14:33:01.364Z,76.1307
2023-05-19T14:34:02.807Z,75.3548
2023-05-19T14:35:04.178Z,73.3100
2023-05-19T14:36:05.604Z,73.3910
2023-05-19T14:37:06.993Z,73.6485
2023-05-19T14:38:08.384Z,74.0912
2023-05-19T14:39:09.759Z,74.6732
2023-05-19T14:41:12.383Z,76.9011
2023-05-19T14:42:13.789Z,74.9075
2023-05-19T14:43:15.240Z,73.1018
2023-05-19T14:44:16.550Z,71.9215
2023-05-19T14:45:18.897Z,74.0841
2023-05-19T14:46:20.372Z,74.7916
2023-05-19T14:47:21.762Z,73.1328
2023-05-19T14:48:23.162Z,72.0059
2023-05-19T14:49:24.593Z,72.3836
2023-05-19T14:50:27.849Z,72.1761
2023-05-19T14:51:27.776Z,71.7312
2023-05-19T14:52:29.204Z,75.6998
2023-05-19T14:53:30.669Z,74.7729
2023-05-19T14:54:32.053Z,73.8388
2023-05-19T14:55:33.463Z,73.9098
2023-05-19T14:56:34.906Z,71.1086
2023-05-19T14:57:36.353Z,73.4194
2023-05-19T14:58:37.794Z,73.3038
2023-05-19T14:59:39.177Z,72.9015
2023-05-19T15:00:40.630Z,72.4256
2023-05-19T15:01:42.037Z,74.1494
2023-05-19T15:02:43.532Z,74.6549
2023-05-19T15:03:44.990Z,74.4001
2023-05-19T15:06:58.234Z,74.5587
2023-05-19T15:07:50.802Z,74.4825
2023-05-19T15:08:52.204Z,71.5280
2023-05-19T15:09:53.635Z,72.3059
2023-05-19T15:10:55.053Z,75.2816
2023-05-19T15:11:56.411Z,73.2116
2023-05-19T15:12:58.091Z,70.8243
2023-05-19T15:16:12.365Z,74.6344
2023-05-19T15:17:03.617Z,76.3922
2023-05-19T15:18:05.287Z,76.6923
2023-05-19T15:19:06.697Z,74.3102
2023-05-19T15:20:08.140Z,73.0621
2023-05-19T15:21:09.586Z,74.3348